Terminal Aerodrome Forecast
Issued by NWS Portland, OR

Home | Current Version | Previous Version | Text Only | Print | Product List | Glossary On
Versions: 1 2 3 4 5 6 7 8 9 10 11 12 13 14 15 16 17 18 19 20 21 22 23 24 25 26 27 28 29 30 31 32 33 34 35 36 37 38 39 40 41 42
855
FTUS46 KPQR 071720
TAFEUG
TAF
KEUG 071720Z 0718/0818 01004KT 2SM BR OVC004
     FM071900 02004KT P6SM BKN008 OVC012
     FM072100 01004KT P6SM SCT008 BKN012
     FM072200 36003KT P6SM FEW012
     FM080500 00000KT 4SM BR FEW004
     FM080700 00000KT 1SM BR BKN004
     FM080900 00000KT 1/4SM FG VV001=

USA.gov is the U.S. government's official web portal to all federal, state and local government web resources and services.